sensor_id;sensor_type;location;lat;lon;timestamp;P1;durP1;ratioP1;P2;durP2;ratioP2
3211;SDS011;1618;47.056;15.472;2024-01-15T00:00:09;35.73;;;33.53;;
3211;SDS011;1618;47.056;15.472;2024-01-15T00:02:36;34.93;;;32.83;;
3211;SDS011;1618;47.056;15.472;2024-01-15T00:05:05;35.10;;;33.00;;
3211;SDS011;1618;47.056;15.472;2024-01-15T00:07:32;34.50;;;32.40;;
3211;SDS011;1618;47.056;15.472;2024-01-15T00:09:59;34.90;;;32.80;;
3211;SDS011;1618;47.056;15.472;2024-01-15T00:12:28;35.07;;;32.97;;
3211;SDS011;1618;47.056;15.472;2024-01-15T00:14:55;35.20;;;33.10;;
3211;SDS011;1618;47.056;15.472;2024-01-15T00:17:22;35.10;;;33.00;;
3211;SDS011;1618;47.056;15.472;2024-01-15T00:19:49;34.90;;;32.80;;
3211;SDS011;1618;47.056;15.472;2024-01-15T00:22:17;34.23;;;32.23;;
3211;SDS011;1618;47.056;15.472;2024-01-15T00:24:44;34.57;;;32.57;;
3211;SDS011;1618;47.056;15.472;2024-01-15T00:27:12;34.60;;;32.60;;
3211;SDS011;1618;47.056;15.472;2024-01-15T00:29:40;34.50;;;32.50;;
3211;SDS011;1618;47.056;15.472;2024-01-15T00:32:08;33.70;;;31.80;;
3211;SDS011;1618;47.056;15.472;2024-01-15T00:34:36;33.40;;;31.50;;
3211;SDS011;1618;47.056;15.472;2024-01-15T00:37:04;33.10;;;31.20;;
3211;SDS011;1618;47.056;15.472;2024-01-15T00:39:33;33.00;;;31.10;;
3211;SDS011;1618;47.056;15.472;2024-01-15T00:42:00;34.43;;;32.50;;
3211;SDS011;1618;47.056;15.472;2024-01-15T00:44:29;33.90;;;32.00;;
3211;SDS011;1618;47.056;15.472;2024-01-15T00:46:57;33.67;;;31.77;;
3211;SDS011;1618;47.056;15.472;2024-01-15T00:49:24;32.90;;;31.00;;
3211;SDS011;1618;47.056;15.472;2024-01-15T00:51:54;32.80;;;30.90;;
3211;SDS011;1618;47.056;15.472;2024-01-15T00:54:22;31.57;;;29.77;;
3211;SDS011;1618;47.056;15.472;2024-01-15T00:56:49;31.63;;;29.83;;
3211;SDS011;1618;47.056;15.472;2024-01-15T00:59:20;32.97;;;31.07;;
3211;SDS011;1618;47.056;15.472;2024-01-15T01:01:49;32.67;;;30.80;;
3211;SDS011;1618;47.056;15.472;2024-01-15T01:04:18;33.23;;;31.33;;
3211;SDS011;1618;47.056;15.472;2024-01-15T01:06:49;32.47;;;30.67;;
3211;SDS011;1618;47.056;15.472;2024-01-15T01:09:16;32.40;;;30.50;;
3211;SDS011;1618;47.056;15.472;2024-01-15T01:11:43;33.57;;;31.67;;
3211;SDS011;1618;47.056;15.472;2024-01-15T01:14:11;34.50;;;32.50;;
3211;SDS011;1618;47.056;15.472;2024-01-15T01:16:39;34.50;;;32.50;;
3211;SDS011;1618;47.056;15.472;2024-01-15T01:19:06;34.80;;;32.80;;
3211;SDS011;1618;47.056;15.472;2024-01-15T01:21:36;35.20;;;33.20;;
3211;SDS011;1618;47.056;15.472;2024-01-15T01:24:04;38.23;;;36.03;;
3211;SDS011;1618;47.056;15.472;2024-01-15T01:26:32;37.33;;;35.23;;
3211;SDS011;1618;47.056;15.472;2024-01-15T01:29:01;38.23;;;36.03;;
3211;SDS011;1618;47.056;15.472;2024-01-15T01:31:29;38.70;;;36.50;;
3211;SDS011;1618;47.056;15.472;2024-01-15T01:33:56;35.50;;;33.40;;
3211;SDS011;1618;47.056;15.472;2024-01-15T01:36:24;34.90;;;32.80;;
3211;SDS011;1618;47.056;15.472;2024-01-15T01:38:53;35.30;;;33.20;;
3211;SDS011;1618;47.056;15.472;2024-01-15T01:41:20;35.37;;;33.33;;
3211;SDS011;1618;47.056;15.472;2024-01-15T01:43:49;35.00;;;33.00;;
3211;SDS011;1618;47.056;15.472;2024-01-15T01:46:16;34.90;;;32.87;;
3211;SDS011;1618;47.056;15.472;2024-01-15T01:48:44;35.30;;;33.20;;
3211;SDS011;1618;47.056;15.472;2024-01-15T01:51:11;33.77;;;31.77;;
3211;SDS011;1618;47.056;15.472;2024-01-15T01:53:39;33.95;;;31.95;;
3211;SDS011;1618;47.056;15.472;2024-01-15T01:56:07;34.30;;;32.30;;
3211;SDS011;1618;47.056;15.472;2024-01-15T01:58:35;33.93;;;31.93;;
3211;SDS011;1618;47.056;15.472;2024-01-15T02:01:03;33.40;;;31.50;;
3211;SDS011;1618;47.056;15.472;2024-01-15T02:03:31;32.97;;;31.07;;
3211;SDS011;1618;47.056;15.472;2024-01-15T02:06:00;32.37;;;30.47;;
3211;SDS011;1618;47.056;15.472;2024-01-15T02:08:29;31.60;;;29.80;;
3211;SDS011;1618;47.056;15.472;2024-01-15T02:10:57;32.63;;;30.73;;
3211;SDS011;1618;47.056;15.472;2024-01-15T02:13:27;32.13;;;30.23;;
3211;SDS011;1618;47.056;15.472;2024-01-15T02:15:54;31.70;;;29.90;;
3211;SDS011;1618;47.056;15.472;2024-01-15T02:18:23;31.70;;;29.90;;
3211;SDS011;1618;47.056;15.472;2024-01-15T02:20:51;32.27;;;30.47;;
3211;SDS011;1618;47.056;15.472;2024-01-15T02:23:21;32.83;;;30.93;;
3211;SDS011;1618;47.056;15.472;2024-01-15T02:25:49;32.37;;;30.50;;
3211;SDS011;1618;47.056;15.472;2024-01-15T02:28:18;32.20;;;30.40;;
3211;SDS011;1618;47.056;15.472;2024-01-15T02:30:46;33.10;;;31.20;;
3211;SDS011;1618;47.056;15.472;2024-01-15T02:33:14;33.40;;;31.50;;
3211;SDS011;1618;47.056;15.472;2024-01-15T02:35:43;36.40;;;34.30;;
3211;SDS011;1618;47.056;15.472;2024-01-15T02:38:11;34.13;;;32.13;;
3211;SDS011;1618;47.056;15.472;2024-01-15T02:40:41;34.43;;;32.43;;
3211;SDS011;1618;47.056;15.472;2024-01-15T02:43:13;33.03;;;31.13;;
3211;SDS011;1618;47.056;15.472;2024-01-15T02:45:41;34.00;;;32.00;;
3211;SDS011;1618;47.056;15.472;2024-01-15T02:48:08;37.23;;;35.03;;
3211;SDS011;1618;47.056;15.472;2024-01-15T02:50:36;37.73;;;35.53;;
3211;SDS011;1618;47.056;15.472;2024-01-15T02:53:04;37.40;;;35.30;;
3211;SDS011;1618;47.056;15.472;2024-01-15T02:55:32;37.20;;;35.10;;
3211;SDS011;1618;47.056;15.472;2024-01-15T02:58:02;34.33;;;32.33;;
3211;SDS011;1618;47.056;15.472;2024-01-15T03:00:32;34.13;;;32.13;;
3211;SDS011;1618;47.056;15.472;2024-01-15T03:03:00;35.10;;;33.00;;
3211;SDS011;1618;47.056;15.472;2024-01-15T03:05:27;35.20;;;33.10;;
3211;SDS011;1618;47.056;15.472;2024-01-15T03:07:55;35.40;;;33.30;;
3211;SDS011;1618;47.056;15.472;2024-01-15T03:10:23;34.53;;;32.43;;
3211;SDS011;1618;47.056;15.472;2024-01-15T03:12:51;35.73;;;33.63;;
3211;SDS011;1618;47.056;15.472;2024-01-15T03:15:21;36.07;;;33.97;;
3211;SDS011;1618;47.056;15.472;2024-01-15T03:17:48;36.00;;;33.80;;
3211;SDS011;1618;47.056;15.472;2024-01-15T03:20:17;34.80;;;32.70;;
3211;SDS011;1618;47.056;15.472;2024-01-15T03:22:44;35.70;;;33.60;;
3211;SDS011;1618;47.056;15.472;2024-01-15T03:25:12;35.50;;;33.40;;
3211;SDS011;1618;47.056;15.472;2024-01-15T03:27:39;36.27;;;34.07;;
3211;SDS011;1618;47.056;15.472;2024-01-15T03:30:07;35.43;;;33.33;;
3211;SDS011;1618;47.056;15.472;2024-01-15T03:32:38;35.17;;;33.07;;
3211;SDS011;1618;47.056;15.472;2024-01-15T03:35:06;36.67;;;34.47;;
3211;SDS011;1618;47.056;15.472;2024-01-15T03:37:35;36.27;;;34.07;;
3211;SDS011;1618;47.056;15.472;2024-01-15T03:40:03;35.63;;;33.53;;
3211;SDS011;1618;47.056;15.472;2024-01-15T03:42:31;35.50;;;33.40;;
3211;SDS011;1618;47.056;15.472;2024-01-15T03:45:00;36.00;;;33.90;;
3211;SDS011;1618;47.056;15.472;2024-01-15T03:47:28;36.57;;;34.37;;
3211;SDS011;1618;47.056;15.472;2024-01-15T03:49:57;36.40;;;34.20;;
3211;SDS011;1618;47.056;15.472;2024-01-15T03:52:25;36.63;;;34.43;;
3211;SDS011;1618;47.056;15.472;2024-01-15T03:54:54;36.60;;;34.43;;
3211;SDS011;1618;47.056;15.472;2024-01-15T03:57:22;37.57;;;35.27;;
3211;SDS011;1618;47.056;15.472;2024-01-15T03:59:51;37.50;;;35.30;;
3211;SDS011;1618;47.056;15.472;2024-01-15T04:02:19;36.60;;;34.40;;
3211;SDS011;1618;47.056;15.472;2024-01-15T04:04:47;37.50;;;35.30;;
3211;SDS011;1618;47.056;15.472;2024-01-15T04:07:16;36.83;;;34.63;;
3211;SDS011;1618;47.056;15.472;2024-01-15T04:09:44;35.43;;;33.33;;
3211;SDS011;1618;47.056;15.472;2024-01-15T04:12:12;37.30;;;35.10;;
3211;SDS011;1618;47.056;15.472;2024-01-15T04:14:40;37.40;;;35.20;;
3211;SDS011;1618;47.056;15.472;2024-01-15T04:17:08;38.55;;;36.35;;
3211;SDS011;1618;47.056;15.472;2024-01-15T04:19:35;37.73;;;35.57;;
3211;SDS011;1618;47.056;15.472;2024-01-15T04:22:03;37.97;;;35.87;;
3211;SDS011;1618;47.056;15.472;2024-01-15T04:24:32;37.60;;;35.40;;
3211;SDS011;1618;47.056;15.472;2024-01-15T04:27:01;33.63;;;31.63;;
3211;SDS011;1618;47.056;15.472;2024-01-15T04:29:28;34.67;;;32.57;;
3211;SDS011;1618;47.056;15.472;2024-01-15T04:31:56;33.40;;;31.40;;
3211;SDS011;1618;47.056;15.472;2024-01-15T04:34:23;33.92;;;31.92;;
3211;SDS011;1618;47.056;15.472;2024-01-15T04:36:56;34.20;;;32.30;;
3211;SDS011;1618;47.056;15.472;2024-01-15T04:39:33;34.83;;;32.88;;
3211;SDS011;1618;47.056;15.472;2024-01-15T04:42:03;33.90;;;32.00;;
3211;SDS011;1618;47.056;15.472;2024-01-15T04:44:34;32.73;;;30.83;;
3211;SDS011;1618;47.056;15.472;2024-01-15T04:47:02;34.67;;;32.67;;
3211;SDS011;1618;47.056;15.472;2024-01-15T04:49:29;33.67;;;31.83;;
3211;SDS011;1618;47.056;15.472;2024-01-15T04:51:58;32.00;;;30.10;;
3211;SDS011;1618;47.056;15.472;2024-01-15T04:54:26;31.50;;;29.70;;
3211;SDS011;1618;47.056;15.472;2024-01-15T04:56:56;32.78;;;30.88;;
3211;SDS011;1618;47.056;15.472;2024-01-15T04:59:24;32.27;;;30.40;;
3211;SDS011;1618;47.056;15.472;2024-01-15T05:01:52;32.73;;;30.93;;
3211;SDS011;1618;47.056;15.472;2024-01-15T05:04:20;32.10;;;30.30;;
3211;SDS011;1618;47.056;15.472;2024-01-15T05:06:47;33.25;;;31.45;;
3211;SDS011;1618;47.056;15.472;2024-01-15T05:09:14;34.27;;;32.37;;
3211;SDS011;1618;47.056;15.472;2024-01-15T05:11:43;33.30;;;31.40;;
3211;SDS011;1618;47.056;15.472;2024-01-15T05:14:13;33.85;;;31.95;;
3211;SDS011;1618;47.056;15.472;2024-01-15T05:16:44;33.83;;;31.93;;
3211;SDS011;1618;47.056;15.472;2024-01-15T05:19:13;33.93;;;32.03;;
3211;SDS011;1618;47.056;15.472;2024-01-15T05:21:42;33.27;;;31.37;;
3211;SDS011;1618;47.056;15.472;2024-01-15T05:24:09;33.40;;;31.53;;
3211;SDS011;1618;47.056;15.472;2024-01-15T05:26:36;34.57;;;32.67;;
3211;SDS011;1618;47.056;15.472;2024-01-15T05:29:06;35.60;;;33.67;;
3211;SDS011;1618;47.056;15.472;2024-01-15T05:31:35;35.57;;;33.57;;
3211;SDS011;1618;47.056;15.472;2024-01-15T05:34:02;35.47;;;33.47;;
3211;SDS011;1618;47.056;15.472;2024-01-15T05:36:29;36.17;;;34.20;;
3211;SDS011;1618;47.056;15.472;2024-01-15T05:38:57;34.90;;;33.00;;
3211;SDS011;1618;47.056;15.472;2024-01-15T05:41:24;37.43;;;35.43;;
3211;SDS011;1618;47.056;15.472;2024-01-15T05:43:51;38.75;;;36.65;;
3211;SDS011;1618;47.056;15.472;2024-01-15T05:46:19;38.23;;;36.13;;
3211;SDS011;1618;47.056;15.472;2024-01-15T05:48:47;37.60;;;35.57;;
3211;SDS011;1618;47.056;15.472;2024-01-15T05:51:15;34.50;;;32.60;;
3211;SDS011;1618;47.056;15.472;2024-01-15T05:53:42;33.67;;;31.83;;
3211;SDS011;1618;47.056;15.472;2024-01-15T05:56:09;34.00;;;32.10;;
3211;SDS011;1618;47.056;15.472;2024-01-15T05:58:37;34.83;;;32.92;;
3211;SDS011;1618;47.056;15.472;2024-01-15T06:01:04;35.93;;;33.97;;
3211;SDS011;1618;47.056;15.472;2024-01-15T06:03:32;34.53;;;32.60;;
3211;SDS011;1618;47.056;15.472;2024-01-15T06:06:01;34.30;;;32.40;;
3211;SDS011;1618;47.056;15.472;2024-01-15T06:08:28;36.50;;;34.50;;
3211;SDS011;1618;47.056;15.472;2024-01-15T06:10:56;35.10;;;33.20;;
3211;SDS011;1618;47.056;15.472;2024-01-15T06:13:23;34.80;;;32.90;;
3211;SDS011;1618;47.056;15.472;2024-01-15T06:15:50;35.30;;;33.40;;
3211;SDS011;1618;47.056;15.472;2024-01-15T06:18:17;35.97;;;34.07;;
3211;SDS011;1618;47.056;15.472;2024-01-15T06:20:45;38.70;;;36.70;;
3211;SDS011;1618;47.056;15.472;2024-01-15T06:23:13;38.40;;;36.30;;
3211;SDS011;1618;47.056;15.472;2024-01-15T06:25:41;41.97;;;39.67;;
3211;SDS011;1618;47.056;15.472;2024-01-15T06:28:09;42.08;;;39.78;;
3211;SDS011;1618;47.056;15.472;2024-01-15T06:30:37;44.00;;;41.60;;
3211;SDS011;1618;47.056;15.472;2024-01-15T06:33:05;44.07;;;41.67;;
3211;SDS011;1618;47.056;15.472;2024-01-15T06:35:32;44.00;;;41.60;;
3211;SDS011;1618;47.056;15.472;2024-01-15T06:38:00;44.07;;;41.67;;
3211;SDS011;1618;47.056;15.472;2024-01-15T06:40:28;42.92;;;40.63;;
3211;SDS011;1618;47.056;15.472;2024-01-15T06:42:55;43.90;;;41.50;;
3211;SDS011;1618;47.056;15.472;2024-01-15T06:45:23;44.00;;;41.60;;
3211;SDS011;1618;47.056;15.472;2024-01-15T06:47:51;42.80;;;40.50;;
3211;SDS011;1618;47.056;15.472;2024-01-15T06:50:18;42.40;;;40.10;;
3211;SDS011;1618;47.056;15.472;2024-01-15T06:52:47;43.20;;;40.90;;
3211;SDS011;1618;47.056;15.472;2024-01-15T06:55:15;41.80;;;39.60;;
3211;SDS011;1618;47.056;15.472;2024-01-15T06:57:43;41.87;;;39.57;;
3211;SDS011;1618;47.056;15.472;2024-01-15T07:00:11;37.67;;;35.57;;
3211;SDS011;1618;47.056;15.472;2024-01-15T07:02:39;39.92;;;37.72;;
3211;SDS011;1618;47.056;15.472;2024-01-15T07:05:07;39.58;;;37.38;;
3211;SDS011;1618;47.056;15.472;2024-01-15T07:07:34;40.70;;;38.40;;
3211;SDS011;1618;47.056;15.472;2024-01-15T07:10:01;39.65;;;37.45;;
3211;SDS011;1618;47.056;15.472;2024-01-15T07:12:28;39.50;;;37.30;;
3211;SDS011;1618;47.056;15.472;2024-01-15T07:14:58;38.78;;;36.67;;
3211;SDS011;1618;47.056;15.472;2024-01-15T07:17:25;38.67;;;36.50;;
3211;SDS011;1618;47.056;15.472;2024-01-15T07:19:53;39.03;;;36.92;;
3211;SDS011;1618;47.056;15.472;2024-01-15T07:22:21;38.30;;;36.20;;
3211;SDS011;1618;47.056;15.472;2024-01-15T07:24:48;39.53;;;37.28;;
3211;SDS011;1618;47.056;15.472;2024-01-15T07:27:16;40.20;;;37.90;;
3211;SDS011;1618;47.056;15.472;2024-01-15T07:29:43;39.10;;;36.90;;
3211;SDS011;1618;47.056;15.472;2024-01-15T07:32:12;39.97;;;37.77;;
3211;SDS011;1618;47.056;15.472;2024-01-15T07:34:39;38.67;;;36.47;;
3211;SDS011;1618;47.056;15.472;2024-01-15T07:37:06;37.67;;;35.47;;
3211;SDS011;1618;47.056;15.472;2024-01-15T07:39:36;36.25;;;34.15;;
3211;SDS011;1618;47.056;15.472;2024-01-15T07:42:03;37.92;;;35.78;;
3211;SDS011;1618;47.056;15.472;2024-01-15T07:44:32;39.80;;;37.60;;
3211;SDS011;1618;47.056;15.472;2024-01-15T07:47:02;39.25;;;37.05;;
3211;SDS011;1618;47.056;15.472;2024-01-15T07:49:31;38.90;;;36.70;;
3211;SDS011;1618;47.056;15.472;2024-01-15T07:51:58;37.90;;;35.80;;
3211;SDS011;1618;47.056;15.472;2024-01-15T07:54:25;37.05;;;35.00;;
3211;SDS011;1618;47.056;15.472;2024-01-15T07:56:53;36.20;;;34.20;;
3211;SDS011;1618;47.056;15.472;2024-01-15T07:59:21;34.80;;;32.90;;
3211;SDS011;1618;47.056;15.472;2024-01-15T08:01:49;35.77;;;33.77;;
3211;SDS011;1618;47.056;15.472;2024-01-15T08:04:16;36.10;;;34.10;;
3211;SDS011;1618;47.056;15.472;2024-01-15T08:06:45;35.53;;;33.53;;
3211;SDS011;1618;47.056;15.472;2024-01-15T08:09:12;35.80;;;33.90;;
3211;SDS011;1618;47.056;15.472;2024-01-15T08:11:39;33.93;;;32.10;;
3211;SDS011;1618;47.056;15.472;2024-01-15T08:14:07;33.33;;;31.53;;
3211;SDS011;1618;47.056;15.472;2024-01-15T08:16:34;34.20;;;32.40;;
3211;SDS011;1618;47.056;15.472;2024-01-15T08:19:03;34.60;;;32.70;;
3211;SDS011;1618;47.056;15.472;2024-01-15T08:21:30;34.70;;;32.80;;
3211;SDS011;1618;47.056;15.472;2024-01-15T08:24:01;34.70;;;32.80;;
3211;SDS011;1618;47.056;15.472;2024-01-15T08:26:28;35.50;;;33.50;;
3211;SDS011;1618;47.056;15.472;2024-01-15T08:28:56;33.80;;;31.90;;
3211;SDS011;1618;47.056;15.472;2024-01-15T08:31:24;34.90;;;33.00;;
3211;SDS011;1618;47.056;15.472;2024-01-15T08:33:52;35.17;;;33.27;;
3211;SDS011;1618;47.056;15.472;2024-01-15T08:36:20;34.47;;;32.57;;
3211;SDS011;1618;47.056;15.472;2024-01-15T08:38:51;33.20;;;31.30;;
3211;SDS011;1618;47.056;15.472;2024-01-15T08:41:19;32.93;;;31.00;;
3211;SDS011;1618;47.056;15.472;2024-01-15T08:43:47;34.67;;;32.67;;
3211;SDS011;1618;47.056;15.472;2024-01-15T08:46:14;34.80;;;32.80;;
3211;SDS011;1618;47.056;15.472;2024-01-15T08:48:41;36.80;;;34.80;;
3211;SDS011;1618;47.056;15.472;2024-01-15T08:51:10;36.00;;;34.00;;
3211;SDS011;1618;47.056;15.472;2024-01-15T08:53:38;37.57;;;35.50;;
3211;SDS011;1618;47.056;15.472;2024-01-15T08:56:08;36.70;;;34.70;;
3211;SDS011;1618;47.056;15.472;2024-01-15T08:58:37;37.40;;;35.30;;
3211;SDS011;1618;47.056;15.472;2024-01-15T09:01:04;36.80;;;34.80;;
3211;SDS011;1618;47.056;15.472;2024-01-15T09:03:32;36.43;;;34.43;;
3211;SDS011;1618;47.056;15.472;2024-01-15T09:06:00;37.27;;;35.27;;
3211;SDS011;1618;47.056;15.472;2024-01-15T09:08:29;37.03;;;34.97;;
3211;SDS011;1618;47.056;15.472;2024-01-15T09:10:57;36.77;;;34.70;;
3211;SDS011;1618;47.056;15.472;2024-01-15T09:13:27;36.40;;;34.40;;
3211;SDS011;1618;47.056;15.472;2024-01-15T09:15:57;37.53;;;35.43;;
3211;SDS011;1618;47.056;15.472;2024-01-15T09:18:26;38.10;;;35.90;;
3211;SDS011;1618;47.056;15.472;2024-01-15T09:20:54;37.53;;;35.33;;
3211;SDS011;1618;47.056;15.472;2024-01-15T09:23:21;37.80;;;35.60;;
3211;SDS011;1618;47.056;15.472;2024-01-15T09:25:49;36.97;;;34.87;;
3211;SDS011;1618;47.056;15.472;2024-01-15T09:28:17;37.87;;;35.70;;
3211;SDS011;1618;47.056;15.472;2024-01-15T09:30:45;37.57;;;35.37;;
3211;SDS011;1618;47.056;15.472;2024-01-15T09:33:13;39.03;;;36.73;;
3211;SDS011;1618;47.056;15.472;2024-01-15T09:35:41;39.10;;;36.70;;
3211;SDS011;1618;47.056;15.472;2024-01-15T09:38:08;39.10;;;36.70;;
3211;SDS011;1618;47.056;15.472;2024-01-15T09:40:36;37.60;;;35.30;;
3211;SDS011;1618;47.056;15.472;2024-01-15T09:43:06;39.40;;;37.00;;
3211;SDS011;1618;47.056;15.472;2024-01-15T09:45:34;40.77;;;38.17;;
3211;SDS011;1618;47.056;15.472;2024-01-15T09:48:07;43.50;;;40.70;;
3211;SDS011;1618;47.056;15.472;2024-01-15T09:50:36;44.50;;;41.60;;
3211;SDS011;1618;47.056;15.472;2024-01-15T09:53:03;45.50;;;42.50;;
3211;SDS011;1618;47.056;15.472;2024-01-15T09:55:32;47.70;;;44.70;;
3211;SDS011;1618;47.056;15.472;2024-01-15T09:58:00;46.10;;;43.10;;
3211;SDS011;1618;47.056;15.472;2024-01-15T10:00:28;46.93;;;43.83;;
3211;SDS011;1618;47.056;15.472;2024-01-15T10:02:56;47.33;;;44.33;;
3211;SDS011;1618;47.056;15.472;2024-01-15T10:05:25;46.20;;;43.20;;
3211;SDS011;1618;47.056;15.472;2024-01-15T10:08:23;47.13;;;44.13;;
3211;SDS011;1618;47.056;15.472;2024-01-15T10:13:43;48.03;;;44.83;;
3211;SDS011;1618;47.056;15.472;2024-01-15T10:16:10;45.03;;;41.90;;
3211;SDS011;1618;47.056;15.472;2024-01-15T10:18:37;44.87;;;41.67;;
3211;SDS011;1618;47.056;15.472;2024-01-15T10:21:05;45.13;;;41.83;;
3211;SDS011;1618;47.056;15.472;2024-01-15T10:23:34;44.17;;;40.97;;
3211;SDS011;1618;47.056;15.472;2024-01-15T10:26:03;44.93;;;41.67;;
3211;SDS011;1618;47.056;15.472;2024-01-15T10:28:30;45.07;;;41.77;;
3211;SDS011;1618;47.056;15.472;2024-01-15T10:30:58;43.03;;;39.93;;
3211;SDS011;1618;47.056;15.472;2024-01-15T10:33:27;42.57;;;39.47;;
3211;SDS011;1618;47.056;15.472;2024-01-15T10:35:57;42.50;;;39.30;;
3211;SDS011;1618;47.056;15.472;2024-01-15T10:38:25;42.40;;;39.20;;
3211;SDS011;1618;47.056;15.472;2024-01-15T10:40:59;43.30;;;40.00;;
3211;SDS011;1618;47.056;15.472;2024-01-15T10:43:42;40.23;;;37.13;;
3211;SDS011;1618;47.056;15.472;2024-01-15T10:46:10;40.37;;;37.17;;
3211;SDS011;1618;47.056;15.472;2024-01-15T10:54:44;41.97;;;38.53;;
3211;SDS011;1618;47.056;15.472;2024-01-15T11:00:46;41.87;;;38.57;;
3211;SDS011;1618;47.056;15.472;2024-01-15T11:06:17;40.77;;;37.47;;
3211;SDS011;1618;47.056;15.472;2024-01-15T11:11:50;41.53;;;38.13;;
3211;SDS011;1618;47.056;15.472;2024-01-15T11:23:26;40.60;;;37.40;;
3211;SDS011;1618;47.056;15.472;2024-01-15T11:29:28;38.90;;;35.60;;
3211;SDS011;1618;47.056;15.472;2024-01-15T11:34:59;39.47;;;36.27;;
3211;SDS011;1618;47.056;15.472;2024-01-15T11:40:39;37.40;;;34.30;;
3211;SDS011;1618;47.056;15.472;2024-01-15T11:46:11;37.83;;;34.63;;
3211;SDS011;1618;47.056;15.472;2024-01-15T11:51:43;37.47;;;34.27;;
3211;SDS011;1618;47.056;15.472;2024-01-15T11:57:24;37.47;;;34.27;;
3211;SDS011;1618;47.056;15.472;2024-01-15T12:02:58;37.40;;;34.13;;
3211;SDS011;1618;47.056;15.472;2024-01-15T12:08:31;37.27;;;34.07;;
3211;SDS011;1618;47.056;15.472;2024-01-15T12:14:07;38.90;;;35.70;;
3211;SDS011;1618;47.056;15.472;2024-01-15T12:23:31;37.47;;;34.17;;
3211;SDS011;1618;47.056;15.472;2024-01-15T12:29:05;37.50;;;34.20;;
3211;SDS011;1618;47.056;15.472;2024-01-15T12:34:37;38.90;;;35.60;;
3211;SDS011;1618;47.056;15.472;2024-01-15T12:40:09;38.80;;;35.60;;
3211;SDS011;1618;47.056;15.472;2024-01-15T12:45:49;40.00;;;36.80;;
3211;SDS011;1618;47.056;15.472;2024-01-15T12:51:25;39.50;;;36.30;;
3211;SDS011;1618;47.056;15.472;2024-01-15T12:57:04;38.10;;;35.00;;
3211;SDS011;1618;47.056;15.472;2024-01-15T13:02:37;38.40;;;35.37;;
3211;SDS011;1618;47.056;15.472;2024-01-15T13:08:10;38.20;;;35.10;;
3211;SDS011;1618;47.056;15.472;2024-01-15T13:14:03;38.10;;;35.00;;
3211;SDS011;1618;47.056;15.472;2024-01-15T13:20:11;37.80;;;34.70;;
3211;SDS011;1618;47.056;15.472;2024-01-15T13:29:02;38.50;;;35.40;;
3211;SDS011;1618;47.056;15.472;2024-01-15T13:59:25;37.47;;;34.37;;
3211;SDS011;1618;47.056;15.472;2024-01-15T14:04:56;37.90;;;34.70;;
3211;SDS011;1618;47.056;15.472;2024-01-15T14:10:36;37.57;;;34.57;;
3211;SDS011;1618;47.056;15.472;2024-01-15T14:16:26;37.23;;;34.23;;
3211;SDS011;1618;47.056;15.472;2024-01-15T14:28:07;37.13;;;34.13;;
3211;SDS011;1618;47.056;15.472;2024-01-15T14:33:42;37.40;;;34.40;;
3211;SDS011;1618;47.056;15.472;2024-01-15T14:39:13;36.27;;;33.37;;
3211;SDS011;1618;47.056;15.472;2024-01-15T14:44:45;37.73;;;34.73;;
3211;SDS011;1618;47.056;15.472;2024-01-15T14:50:22;37.07;;;34.17;;
3211;SDS011;1618;47.056;15.472;2024-01-15T14:56:04;36.47;;;33.57;;
3211;SDS011;1618;47.056;15.472;2024-01-15T15:04:43;37.93;;;35.03;;
3211;SDS011;1618;47.056;15.472;2024-01-15T15:10:27;37.10;;;34.10;;
3211;SDS011;1618;47.056;15.472;2024-01-15T15:16:00;36.50;;;33.60;;
3211;SDS011;1618;47.056;15.472;2024-01-15T15:21:32;36.80;;;34.00;;
3211;SDS011;1618;47.056;15.472;2024-01-15T15:27:10;36.40;;;33.50;;
3211;SDS011;1618;47.056;15.472;2024-01-15T15:32:59;36.90;;;34.10;;
3211;SDS011;1618;47.056;15.472;2024-01-15T15:35:45;33.93;;;31.33;;
3211;SDS011;1618;47.056;15.472;2024-01-15T15:41:32;35.03;;;32.33;;
3211;SDS011;1618;47.056;15.472;2024-01-15T15:47:31;35.03;;;32.33;;
3211;SDS011;1618;47.056;15.472;2024-01-15T15:53:05;34.47;;;31.97;;
3211;SDS011;1618;47.056;15.472;2024-01-15T15:58:51;35.30;;;32.80;;
3211;SDS011;1618;47.056;15.472;2024-01-15T16:19:26;39.40;;;36.90;;
3211;SDS011;1618;47.056;15.472;2024-01-15T16:25:40;40.20;;;37.60;;
3211;SDS011;1618;47.056;15.472;2024-01-15T16:31:14;39.43;;;36.93;;
3211;SDS011;1618;47.056;15.472;2024-01-15T16:37:08;37.70;;;35.30;;
3211;SDS011;1618;47.056;15.472;2024-01-15T16:43:00;39.10;;;36.70;;
3211;SDS011;1618;47.056;15.472;2024-01-15T16:45:33;40.10;;;37.70;;
3211;SDS011;1618;47.056;15.472;2024-01-15T16:48:00;43.00;;;40.40;;
3211;SDS011;1618;47.056;15.472;2024-01-15T16:50:28;42.00;;;39.50;;
3211;SDS011;1618;47.056;15.472;2024-01-15T16:52:56;43.57;;;40.97;;
3211;SDS011;1618;47.056;15.472;2024-01-15T16:55:25;42.60;;;40.00;;
3211;SDS011;1618;47.056;15.472;2024-01-15T16:57:52;43.20;;;40.70;;
3211;SDS011;1618;47.056;15.472;2024-01-15T17:00:20;44.57;;;42.03;;
3211;SDS011;1618;47.056;15.472;2024-01-15T17:02:49;43.97;;;41.37;;
3211;SDS011;1618;47.056;15.472;2024-01-15T17:05:16;43.80;;;41.20;;
3211;SDS011;1618;47.056;15.472;2024-01-15T17:07:46;41.17;;;38.83;;
3211;SDS011;1618;47.056;15.472;2024-01-15T17:10:16;40.30;;;38.00;;
3211;SDS011;1618;47.056;15.472;2024-01-15T17:12:43;42.30;;;39.90;;
3211;SDS011;1618;47.056;15.472;2024-01-15T17:15:11;42.47;;;40.07;;
3211;SDS011;1618;47.056;15.472;2024-01-15T17:17:41;43.10;;;40.50;;
3211;SDS011;1618;47.056;15.472;2024-01-15T17:20:09;42.80;;;40.23;;
3211;SDS011;1618;47.056;15.472;2024-01-15T17:22:37;42.20;;;39.50;;
3211;SDS011;1618;47.056;15.472;2024-01-15T17:25:05;40.53;;;38.03;;
3211;SDS011;1618;47.056;15.472;2024-01-15T17:27:34;38.90;;;36.40;;
3211;SDS011;1618;47.056;15.472;2024-01-15T17:30:03;41.10;;;38.60;;
3211;SDS011;1618;47.056;15.472;2024-01-15T17:32:32;41.27;;;38.77;;
3211;SDS011;1618;47.056;15.472;2024-01-15T17:34:59;42.97;;;40.47;;
3211;SDS011;1618;47.056;15.472;2024-01-15T17:37:28;42.90;;;40.40;;
3211;SDS011;1618;47.056;15.472;2024-01-15T17:39:56;40.47;;;38.07;;
3211;SDS011;1618;47.056;15.472;2024-01-15T17:42:23;38.27;;;35.77;;
3211;SDS011;1618;47.056;15.472;2024-01-15T17:44:53;38.73;;;36.13;;
3211;SDS011;1618;47.056;15.472;2024-01-15T17:47:21;38.20;;;35.60;;
3211;SDS011;1618;47.056;15.472;2024-01-15T17:49:50;38.67;;;36.17;;
3211;SDS011;1618;47.056;15.472;2024-01-15T17:52:24;40.10;;;37.40;;
3211;SDS011;1618;47.056;15.472;2024-01-15T17:54:54;39.87;;;37.27;;
3211;SDS011;1618;47.056;15.472;2024-01-15T17:57:21;40.53;;;37.93;;
3211;SDS011;1618;47.056;15.472;2024-01-15T17:59:48;38.90;;;36.27;;
3211;SDS011;1618;47.056;15.472;2024-01-15T18:02:17;37.20;;;34.70;;
3211;SDS011;1618;47.056;15.472;2024-01-15T18:04:44;37.27;;;34.77;;
3211;SDS011;1618;47.056;15.472;2024-01-15T18:07:12;37.23;;;34.70;;
3211;SDS011;1618;47.056;15.472;2024-01-15T18:09:40;38.53;;;35.93;;
3211;SDS011;1618;47.056;15.472;2024-01-15T18:12:07;38.07;;;35.47;;
3211;SDS011;1618;47.056;15.472;2024-01-15T18:14:35;40.23;;;37.53;;
3211;SDS011;1618;47.056;15.472;2024-01-15T18:17:03;37.47;;;34.87;;
3211;SDS011;1618;47.056;15.472;2024-01-15T18:19:33;36.47;;;33.97;;
3211;SDS011;1618;47.056;15.472;2024-01-15T18:22:00;34.57;;;32.20;;
3211;SDS011;1618;47.056;15.472;2024-01-15T18:24:28;35.03;;;32.63;;
3211;SDS011;1618;47.056;15.472;2024-01-15T18:26:55;35.50;;;33.10;;
3211;SDS011;1618;47.056;15.472;2024-01-15T18:29:24;34.83;;;32.53;;